createdAt,value
2022-12-08T00:03:19.638Z,20.98
2022-12-08T00:06:06.928Z,23.42
2022-12-08T00:08:52.616Z,23.35
2022-12-08T00:11:20.038Z,24.05
2022-12-08T00:13:46.997Z,25.92
2022-12-08T00:16:13.798Z,24.65
2022-12-08T00:18:40.577Z,25.15
2022-12-08T00:21:07.353Z,24.42
2022-12-08T00:23:34.050Z,23.85
2022-12-08T00:26:05.126Z,29.10
2022-12-08T00:28:33.323Z,22.05
2022-12-08T00:31:00.707Z,21.13
2022-12-08T00:33:30.564Z,26.27
2022-12-08T00:35:57.297Z,25.05
2022-12-08T00:38:23.999Z,27.90
2022-12-08T00:40:50.694Z,24.60
2022-12-08T00:43:17.420Z,25.35
2022-12-08T00:45:44.223Z,28.42
2022-12-08T00:48:11.007Z,25.95
2022-12-08T00:50:37.746Z,26.15
2022-12-08T00:53:05.029Z,28.65
2022-12-08T00:55:31.753Z,35.35
2022-12-08T00:57:58.496Z,30.40
2022-12-08T01:00:25.195Z,30.52
2022-12-08T01:02:51.960Z,35.20
2022-12-08T01:05:18.838Z,29.40
2022-12-08T01:07:45.734Z,32.97
2022-12-08T01:10:12.471Z,34.63
2022-12-08T01:12:39.216Z,31.00
2022-12-08T01:15:06.280Z,32.80
2022-12-08T01:17:33.080Z,28.88
2022-12-08T01:19:59.867Z,30.38
2022-12-08T01:22:26.650Z,31.27
2022-12-08T01:24:53.378Z,29.80
2022-12-08T01:27:20.154Z,32.42
2022-12-08T01:29:46.837Z,29.88
2022-12-08T01:32:13.540Z,31.08
2022-12-08T01:34:40.299Z,30.95
2022-12-08T01:37:07.003Z,35.88
2022-12-08T01:39:34.850Z,32.15
2022-12-08T01:42:01.566Z,28.83
2022-12-08T01:44:28.228Z,28.75
2022-12-08T01:46:55.456Z,26.42
2022-12-08T01:51:55.051Z,27.15
2022-12-08T01:54:26.480Z,27.00
2022-12-08T01:57:01.121Z,28.10
2022-12-08T01:59:30.436Z,29.55
2022-12-08T02:01:58.021Z,27.15
2022-12-08T02:04:24.747Z,28.05
2022-12-08T02:06:52.759Z,27.13
2022-12-08T02:09:20.289Z,28.40
2022-12-08T02:11:47.684Z,29.08
2022-12-08T02:14:15.019Z,29.10
2022-12-08T02:17:02.309Z,32.53
2022-12-08T02:20:08.423Z,29.70
2022-12-08T02:23:09.607Z,30.48
2022-12-08T02:26:10.371Z,31.77
2022-12-08T02:29:12.526Z,29.25
2022-12-08T02:32:05.283Z,31.17
2022-12-08T02:34:39.824Z,30.63
2022-12-08T02:37:23.620Z,29.48
2022-12-08T02:40:05.832Z,31.65
2022-12-08T02:42:38.847Z,31.92
2022-12-08T02:45:18.490Z,31.77
2022-12-08T02:47:45.388Z,34.60
2022-12-08T02:50:12.384Z,35.90
2022-12-08T02:52:44.538Z,30.30
2022-12-08T02:55:28.129Z,28.20
2022-12-08T02:58:21.066Z,29.75
2022-12-08T03:01:14.085Z,25.67
2022-12-08T03:04:00.091Z,32.45
2022-12-08T03:06:53.247Z,31.75
2022-12-08T03:09:44.554Z,26.42
2022-12-08T03:12:39.243Z,32.28
2022-12-08T03:15:12.830Z,31.73
2022-12-08T03:17:45.568Z,32.30
2022-12-08T03:20:16.675Z,33.60
2022-12-08T03:22:45.346Z,32.40
2022-12-08T03:25:15.264Z,37.97
2022-12-08T03:27:42.199Z,44.28
2022-12-08T03:30:09.735Z,45.35
2022-12-08T03:32:55.337Z,34.92
2022-12-08T03:35:26.501Z,36.38
2022-12-08T03:38:05.907Z,32.28
2022-12-08T03:40:32.791Z,37.08
2022-12-08T03:42:59.494Z,34.47
2022-12-08T03:45:26.342Z,37.33
2022-12-08T03:47:53.098Z,40.15
2022-12-08T03:50:19.775Z,38.15
2022-12-08T03:52:46.532Z,43.20
2022-12-08T03:55:13.348Z,37.90
2022-12-08T03:57:40.267Z,38.53
2022-12-08T04:00:09.598Z,31.40
2022-12-08T04:02:36.397Z,37.72
2022-12-08T04:05:03.222Z,23.67
2022-12-08T04:07:30.323Z,33.20
2022-12-08T04:09:57.079Z,36.80
2022-12-08T04:12:23.750Z,34.00
2022-12-08T04:14:50.454Z,32.35
2022-12-08T04:17:17.191Z,33.83
2022-12-08T04:19:43.874Z,33.47
2022-12-08T04:22:10.687Z,31.77
2022-12-08T04:24:37.492Z,35.60
2022-12-08T04:27:04.302Z,31.60
2022-12-08T04:29:31.015Z,31.45
2022-12-08T04:31:57.936Z,31.73
2022-12-08T04:34:24.711Z,33.33
2022-12-08T04:36:51.518Z,32.30
2022-12-08T04:39:18.263Z,31.60
2022-12-08T04:41:44.923Z,32.10
2022-12-08T04:44:11.623Z,35.70
2022-12-08T04:46:43.175Z,34.90
2022-12-08T04:49:10.659Z,32.15
2022-12-08T04:51:37.366Z,31.77
2022-12-08T04:54:04.145Z,29.90
2022-12-08T04:56:30.919Z,29.30
2022-12-08T04:58:57.626Z,28.67
2022-12-08T05:01:24.374Z,27.67
2022-12-08T05:03:51.291Z,31.85
2022-12-08T05:06:18.047Z,28.92
2022-12-08T05:08:44.750Z,25.63
2022-12-08T05:11:13.130Z,25.08
2022-12-08T05:13:40.178Z,25.90
2022-12-08T05:16:13.063Z,30.48
2022-12-08T05:18:41.137Z,27.90
2022-12-08T05:21:08.471Z,27.85
2022-12-08T05:23:36.022Z,24.90
2022-12-08T05:26:02.748Z,26.20
2022-12-08T05:28:44.829Z,25.60
2022-12-08T05:31:16.332Z,21.92
2022-12-08T05:33:44.411Z,22.75
2022-12-08T05:36:15.823Z,24.35
2022-12-08T05:38:43.559Z,24.90
2022-12-08T05:41:14.464Z,25.10
2022-12-08T05:43:41.603Z,27.75
2022-12-08T05:46:09.143Z,26.02
2022-12-08T05:48:36.203Z,23.98
2022-12-08T05:51:03.946Z,24.60
2022-12-08T05:53:30.721Z,24.35
2022-12-08T05:55:57.590Z,23.73
2022-12-08T05:58:24.365Z,21.67
2022-12-08T06:00:51.426Z,22.25
2022-12-08T06:03:19.751Z,22.58
2022-12-08T06:05:47.064Z,23.55
2022-12-08T06:10:42.403Z,19.92
2022-12-08T06:13:09.209Z,23.65
2022-12-08T06:15:37.084Z,24.45
2022-12-08T06:18:04.652Z,23.27
2022-12-08T06:20:31.473Z,20.65
2022-12-08T06:22:58.303Z,20.58
2022-12-08T06:25:25.178Z,19.98
2022-12-08T06:27:52.148Z,20.13
2022-12-08T06:30:18.951Z,21.58
2022-12-08T06:32:45.828Z,21.30
2022-12-08T06:35:12.517Z,21.13
2022-12-08T06:37:39.224Z,24.95
2022-12-08T06:40:06.981Z,37.45
2022-12-08T06:42:47.045Z,23.00
2022-12-08T06:45:18.298Z,24.48
2022-12-08T06:47:45.377Z,20.33
2022-12-08T06:50:13.465Z,22.80
2022-12-08T06:52:51.735Z,22.30
2022-12-08T06:55:50.949Z,21.88
2022-12-08T06:58:09.874Z,19.38
2022-12-08T07:00:36.575Z,21.92
2022-12-08T07:03:03.381Z,20.25
2022-12-08T07:05:30.136Z,21.00
2022-12-08T07:07:56.900Z,19.50
2022-12-08T07:10:23.669Z,19.10
2022-12-08T07:12:50.422Z,20.33
2022-12-08T07:15:17.232Z,19.63
2022-12-08T07:17:43.943Z,20.40
2022-12-08T07:20:10.953Z,20.20
2022-12-08T07:22:37.631Z,18.95
2022-12-08T07:25:04.644Z,18.02
2022-12-08T07:27:31.370Z,19.70
2022-12-08T07:29:58.096Z,18.95
2022-12-08T07:32:24.883Z,16.58
2022-12-08T07:34:51.844Z,18.23
2022-12-08T07:37:18.554Z,18.30
2022-12-08T07:39:45.339Z,17.85
2022-12-08T07:42:12.691Z,18.55
2022-12-08T07:44:40.614Z,18.02
2022-12-08T07:47:10.335Z,22.75
2022-12-08T07:49:37.677Z,24.40
2022-12-08T07:52:05.252Z,23.02
2022-12-08T07:54:32.252Z,20.13
2022-12-08T07:56:59.454Z,23.92
2022-12-08T07:59:26.725Z,17.77
2022-12-08T08:04:40.935Z,23.50
2022-12-08T08:07:08.139Z,17.52
2022-12-08T08:09:34.976Z,79.25
2022-12-08T08:12:29.756Z,24.48
2022-12-08T08:14:49.379Z,17.65
2022-12-08T08:19:43.591Z,18.65
2022-12-08T08:22:10.416Z,19.33
2022-12-08T08:24:43.130Z,18.58
2022-12-08T08:27:11.936Z,19.80
2022-12-08T08:29:39.293Z,19.30
2022-12-08T08:32:06.108Z,19.83
2022-12-08T08:34:33.229Z,19.10
2022-12-08T08:39:27.769Z,17.60
2022-12-08T08:41:54.455Z,18.15
2022-12-08T08:44:21.155Z,18.73
2022-12-08T08:46:48.011Z,18.65
2022-12-08T08:49:14.747Z,20.58
2022-12-08T08:51:42.192Z,18.55
2022-12-08T08:54:08.916Z,18.42
2022-12-08T08:56:36.527Z,18.02
2022-12-08T08:59:04.404Z,17.67
2022-12-08T09:01:31.664Z,17.65
2022-12-08T09:03:58.992Z,20.08
2022-12-08T09:08:52.792Z,15.90
2022-12-08T09:11:20.093Z,17.92
2022-12-08T09:16:18.356Z,17.20
2022-12-08T09:18:45.296Z,17.50
2022-12-08T09:21:16.767Z,19.50
2022-12-08T09:23:47.036Z,19.58
2022-12-08T09:26:13.787Z,17.20
2022-12-08T09:28:46.866Z,18.48
2022-12-08T09:31:14.770Z,16.05
2022-12-08T09:33:42.162Z,18.95
2022-12-08T09:38:37.305Z,18.55
2022-12-08T09:41:30.844Z,17.80
2022-12-08T09:44:26.820Z,18.52
2022-12-08T09:46:55.322Z,17.10
2022-12-08T09:49:41.009Z,18.30
2022-12-08T09:52:20.464Z,16.73
2022-12-08T09:54:47.292Z,17.33
2022-12-08T09:57:19.292Z,16.27
2022-12-08T09:59:52.759Z,16.52
2022-12-08T10:02:24.833Z,16.42
2022-12-08T10:04:54.234Z,17.13
2022-12-08T10:07:36.155Z,14.60
2022-12-08T10:10:40.361Z,15.07
2022-12-08T10:13:25.589Z,22.05
2022-12-08T10:16:26.551Z,16.55
2022-12-08T10:19:10.371Z,13.77
2022-12-08T10:21:39.135Z,14.55
2022-12-08T10:24:15.487Z,13.27
2022-12-08T10:26:42.378Z,13.77
2022-12-08T10:29:14.466Z,14.60
2022-12-08T10:31:41.648Z,16.40
2022-12-08T10:36:58.638Z,15.25
2022-12-08T10:39:40.653Z,17.10
2022-12-08T10:42:22.070Z,16.38
2022-12-08T10:44:58.093Z,16.85
2022-12-08T10:47:28.056Z,16.45
2022-12-08T10:50:17.137Z,16.98
2022-12-08T10:52:43.883Z,17.95
2022-12-08T10:55:19.276Z,16.77
2022-12-08T10:57:46.028Z,17.20
2022-12-08T11:00:16.185Z,18.40
2022-12-08T11:03:02.621Z,17.67
2022-12-08T11:05:34.017Z,16.58
2022-12-08T11:08:01.754Z,17.10
2022-12-08T11:10:44.394Z,16.67
2022-12-08T11:13:24.351Z,16.42
2022-12-08T11:15:52.195Z,15.30
2022-12-08T11:18:31.321Z,16.70
2022-12-08T11:21:07.344Z,16.70
2022-12-08T11:23:37.224Z,16.60
2022-12-08T11:26:36.508Z,15.95
2022-12-08T11:29:03.321Z,15.18
2022-12-08T11:31:43.763Z,16.52
2022-12-08T11:34:37.240Z,17.27
2022-12-08T11:37:19.788Z,17.00
2022-12-08T11:39:50.212Z,17.13
2022-12-08T11:42:20.538Z,17.33
2022-12-08T11:45:03.130Z,18.17
2022-12-08T11:47:57.501Z,16.00
2022-12-08T11:50:50.714Z,17.15
2022-12-08T11:53:48.887Z,18.00
2022-12-08T11:56:20.600Z,15.87
2022-12-08T11:58:55.948Z,16.08
2022-12-08T12:01:24.932Z,19.45
2022-12-08T12:04:11.037Z,19.05
2022-12-08T12:06:56.159Z,17.63
2022-12-08T12:09:37.986Z,16.77
2022-12-08T12:12:44.600Z,15.88
2022-12-08T12:15:30.248Z,15.90
2022-12-08T12:18:16.453Z,16.90
2022-12-08T12:21:06.392Z,14.30
2022-12-08T12:23:57.324Z,15.88
2022-12-08T12:26:27.392Z,17.88
2022-12-08T12:29:06.220Z,14.18
2022-12-08T12:31:36.868Z,14.23
2022-12-08T12:34:14.703Z,13.07
2022-12-08T12:36:57.167Z,13.55
2022-12-08T12:39:29.543Z,15.52
2022-12-08T12:41:59.896Z,14.02
2022-12-08T12:44:29.624Z,14.18
2022-12-08T12:47:01.834Z,13.55
2022-12-08T12:49:40.845Z,14.43
2022-12-08T12:52:10.313Z,15.52
2022-12-08T12:54:42.588Z,13.90
2022-12-08T12:57:09.313Z,13.88
2022-12-08T12:59:51.642Z,14.60
2022-12-08T13:02:53.601Z,13.20
2022-12-08T13:05:25.125Z,15.48
2022-12-08T13:08:08.216Z,14.40
2022-12-08T13:10:38.802Z,13.82
2022-12-08T13:13:18.611Z,15.57
2022-12-08T13:16:09.986Z,16.00
2022-12-08T13:18:57.650Z,14.82
2022-12-08T13:21:32.143Z,15.20
2022-12-08T13:24:13.949Z,19.85
2022-12-08T13:26:46.174Z,15.15
2022-12-08T13:29:24.862Z,15.40
2022-12-08T13:31:55.637Z,15.27
2022-12-08T13:34:31.502Z,15.30
2022-12-08T13:37:04.170Z,15.93
2022-12-08T13:40:00.377Z,16.90
2022-12-08T13:42:27.362Z,17.35
2022-12-08T13:45:33.455Z,14.02
2022-12-08T13:48:51.237Z,18.13
2022-12-08T13:57:10.111Z,17.42
2022-12-08T13:59:44.299Z,16.23
2022-12-08T14:02:26.773Z,15.27
2022-12-08T14:05:17.492Z,17.08
2022-12-08T14:07:43.184Z,16.13
2022-12-08T14:10:28.421Z,16.73
2022-12-08T14:12:59.652Z,19.73
2022-12-08T14:15:29.214Z,16.92
2022-12-08T14:17:59.387Z,16.63
2022-12-08T14:20:51.904Z,20.38
2022-12-08T14:23:20.604Z,19.77
2022-12-08T14:25:48.261Z,18.50
2022-12-08T14:28:15.315Z,16.17
2022-12-08T14:30:42.342Z,16.20
2022-12-08T14:33:15.086Z,18.13
2022-12-08T14:35:41.862Z,17.75
2022-12-08T14:38:17.263Z,18.63
2022-12-08T14:40:49.251Z,16.05
2022-12-08T14:43:17.961Z,16.75
2022-12-08T14:45:44.682Z,16.08
2022-12-08T14:48:39.144Z,14.43
2022-12-08T14:51:06.030Z,18.58
2022-12-08T14:56:27.849Z,15.65
2022-12-08T14:59:14.369Z,19.75
2022-12-08T15:01:43.103Z,18.48
2022-12-08T15:04:12.881Z,13.82
2022-12-08T15:06:53.913Z,16.02
2022-12-08T15:09:38.898Z,16.92
2022-12-08T15:12:14.862Z,16.00
2022-12-08T15:14:44.226Z,15.65
2022-12-08T15:17:35.372Z,15.07
2022-12-08T15:20:03.720Z,15.95
2022-12-08T15:22:31.506Z,16.95
2022-12-08T15:24:58.810Z,17.38
2022-12-08T15:29:53.780Z,19.42
2022-12-08T15:32:23.106Z,18.90
2022-12-08T15:34:50.471Z,20.35
2022-12-08T15:37:26.402Z,18.50
2022-12-08T15:39:53.501Z,17.83
2022-12-08T15:42:20.509Z,22.75
2022-12-08T15:44:47.440Z,19.92
2022-12-08T15:47:20.018Z,19.17
2022-12-08T15:49:48.204Z,20.92
2022-12-08T15:52:20.643Z,16.33
2022-12-08T15:54:47.471Z,17.08
2022-12-08T15:57:59.147Z,19.67
2022-12-08T16:04:02.730Z,16.80
2022-12-08T16:07:12.491Z,17.25
2022-12-08T16:09:12.394Z,18.92
2022-12-08T16:12:08.386Z,20.10
2022-12-08T16:17:24.939Z,27.02
2022-12-08T16:19:51.918Z,16.95
2022-12-08T16:25:18.208Z,18.27
2022-12-08T16:28:12.357Z,27.55
2022-12-08T16:30:34.038Z,19.85
2022-12-08T16:33:04.756Z,19.02
2022-12-08T16:35:32.702Z,18.25
2022-12-08T16:38:00.056Z,18.48
2022-12-08T16:40:28.130Z,19.52
2022-12-08T16:42:57.598Z,18.65
2022-12-08T16:45:33.323Z,17.67
2022-12-08T16:48:02.106Z,17.88
2022-12-08T16:50:33.051Z,18.20
2022-12-08T16:53:04.218Z,18.00
2022-12-08T16:55:33.919Z,18.35
2022-12-08T16:58:04.116Z,19.83
2022-12-08T17:00:37.174Z,19.23
2022-12-08T17:03:08.570Z,18.17
2022-12-08T17:05:36.940Z,17.63
2022-12-08T17:08:06.667Z,18.15
2022-12-08T17:10:38.744Z,19.63
2022-12-08T17:13:06.838Z,18.95
2022-12-08T17:15:34.044Z,19.70
2022-12-08T17:18:03.460Z,18.90
2022-12-08T17:20:31.503Z,16.60
2022-12-08T17:22:59.701Z,23.17
2022-12-08T17:25:28.068Z,23.50
2022-12-08T17:27:56.935Z,22.83
2022-12-08T17:30:24.245Z,23.40
2022-12-08T17:32:53.566Z,21.27
2022-12-08T17:35:21.880Z,20.48
2022-12-08T17:37:49.147Z,27.17
2022-12-08T17:40:18.072Z,22.27
2022-12-08T17:42:47.712Z,24.58
2022-12-08T17:45:18.304Z,21.25
2022-12-08T17:47:46.548Z,20.45
2022-12-08T17:50:13.524Z,16.95
2022-12-08T17:52:40.296Z,19.63
2022-12-08T17:55:08.699Z,27.85
2022-12-08T17:57:36.794Z,22.73
2022-12-08T18:00:05.328Z,20.20
2022-12-08T18:02:38.736Z,22.20
2022-12-08T18:05:06.256Z,22.63
2022-12-08T18:07:32.958Z,20.10
2022-12-08T18:09:59.810Z,20.75
2022-12-08T18:12:26.583Z,17.05
2022-12-08T18:14:53.339Z,18.10
2022-12-08T18:17:20.687Z,20.13
2022-12-08T18:19:47.529Z,23.52
2022-12-08T18:22:15.961Z,31.23
2022-12-08T18:24:43.020Z,44.13
2022-12-08T18:27:09.827Z,65.28
2022-12-08T18:29:36.805Z,33.33
2022-12-08T18:32:03.708Z,27.02
2022-12-08T18:34:30.500Z,24.75
2022-12-08T18:36:57.303Z,25.45
2022-12-08T18:39:27.462Z,25.52
2022-12-08T18:41:58.627Z,24.65
2022-12-08T18:44:25.603Z,28.45
2022-12-08T18:46:52.364Z,36.10
2022-12-08T18:49:20.021Z,35.72
2022-12-08T18:51:47.682Z,26.35
2022-12-08T18:54:14.426Z,26.23
2022-12-08T18:56:41.261Z,24.15
2022-12-08T18:59:10.999Z,24.25
2022-12-08T19:01:39.369Z,29.58
2022-12-08T19:06:56.462Z,23.20
2022-12-08T19:09:25.425Z,22.13
2022-12-08T19:11:52.680Z,23.27
2022-12-08T19:14:25.788Z,24.38
2022-12-08T19:16:55.043Z,78.30
2022-12-08T19:19:22.011Z,106.00
2022-12-08T19:21:49.396Z,88.47
2022-12-08T19:24:16.800Z,56.60
2022-12-08T19:29:10.722Z,43.33
2022-12-08T19:34:05.704Z,33.25
2022-12-08T19:36:35.544Z,33.03
2022-12-08T19:39:23.106Z,29.88
2022-12-08T19:42:09.371Z,26.00
2022-12-08T19:44:54.386Z,23.88
2022-12-08T19:47:23.954Z,23.63
2022-12-08T19:49:51.412Z,29.92
2022-12-08T19:52:18.283Z,34.78
2022-12-08T19:54:45.840Z,34.15
2022-12-08T19:57:12.879Z,35.22
2022-12-08T19:59:40.115Z,42.88
2022-12-08T20:04:34.425Z,29.77
2022-12-08T20:07:01.166Z,25.65
2022-12-08T20:09:27.970Z,27.38
2022-12-08T20:11:55.020Z,25.38
2022-12-08T20:14:23.511Z,23.50
2022-12-08T20:19:17.667Z,23.50
2022-12-08T20:21:44.444Z,24.40
2022-12-08T20:24:11.217Z,15.93
2022-12-08T20:26:38.024Z,19.88
2022-12-08T20:29:04.703Z,31.73
2022-12-08T20:31:32.745Z,28.77
2022-12-08T20:34:00.254Z,28.35
2022-12-08T20:36:27.452Z,37.67
2022-12-08T20:41:23.501Z,31.50
2022-12-08T20:43:51.289Z,27.05
2022-12-08T20:46:19.215Z,28.58
2022-12-08T20:48:46.394Z,26.25
2022-12-08T20:51:18.070Z,28.08
2022-12-08T20:53:45.313Z,31.67
2022-12-08T20:58:42.975Z,31.05
2022-12-08T21:01:12.037Z,28.05
2022-12-08T21:03:39.331Z,27.13
2022-12-08T21:06:07.177Z,27.45
2022-12-08T21:08:34.884Z,28.55
2022-12-08T21:11:02.013Z,32.03
2022-12-08T21:13:29.474Z,26.65
2022-12-08T21:15:56.729Z,23.23
2022-12-08T21:21:07.170Z,10.88
2022-12-08T21:23:34.720Z,28.35
2022-12-08T21:26:01.674Z,32.63
2022-12-08T21:28:28.904Z,25.42
2022-12-08T21:30:55.968Z,28.13
2022-12-08T21:33:22.855Z,33.13
2022-12-08T21:35:49.860Z,30.33
2022-12-08T21:38:16.812Z,39.92
2022-12-08T21:40:43.588Z,26.42
2022-12-08T21:43:10.441Z,36.85
2022-12-08T21:45:37.203Z,40.42
2022-12-08T21:48:10.932Z,33.55
2022-12-08T21:50:38.972Z,38.83
2022-12-08T21:55:32.567Z,40.33
2022-12-08T21:58:00.962Z,42.45
2022-12-08T22:00:28.150Z,40.70
2022-12-08T22:02:55.229Z,39.75
2022-12-08T22:05:22.124Z,34.10
2022-12-08T22:07:48.925Z,31.13
2022-12-08T22:10:16.091Z,53.30
2022-12-08T22:12:42.980Z,47.90
2022-12-08T22:15:11.394Z,35.53
2022-12-08T22:17:43.424Z,50.75
2022-12-08T22:20:13.441Z,40.63
2022-12-08T22:22:41.348Z,40.42
2022-12-08T22:25:11.930Z,50.03
2022-12-08T22:27:40.115Z,57.80
2022-12-08T22:30:08.312Z,38.33
2022-12-08T22:32:35.690Z,56.13
2022-12-08T22:37:29.246Z,45.67
2022-12-08T22:39:55.928Z,43.95
2022-12-08T22:42:22.650Z,44.17
2022-12-08T22:44:49.463Z,31.00
2022-12-08T22:47:16.153Z,54.80
2022-12-08T22:49:42.862Z,43.03
2022-12-08T22:52:09.826Z,39.58
2022-12-08T22:54:36.844Z,52.70
2022-12-08T22:57:03.797Z,44.85
2022-12-08T22:59:30.639Z,41.40
2022-12-08T23:01:57.415Z,53.65
2022-12-08T23:04:24.179Z,32.67
2022-12-08T23:06:51.207Z,48.03
2022-12-08T23:09:18.042Z,48.08
2022-12-08T23:11:44.832Z,56.13
2022-12-08T23:14:11.537Z,56.28
2022-12-08T23:16:38.599Z,41.65
2022-12-08T23:19:05.895Z,57.53
2022-12-08T23:21:32.986Z,46.13
2022-12-08T23:24:01.270Z,47.42
2022-12-08T23:26:29.794Z,47.03
2022-12-08T23:28:57.322Z,34.30
2022-12-08T23:31:24.853Z,42.10
2022-12-08T23:33:52.448Z,38.17
2022-12-08T23:36:20.935Z,45.28
2022-12-08T23:38:48.332Z,52.88
2022-12-08T23:41:16.199Z,58.47
2022-12-08T23:43:45.616Z,50.20
2022-12-08T23:46:13.155Z,52.53
2022-12-08T23:48:40.541Z,62.13
2022-12-08T23:51:07.416Z,41.53
2022-12-08T23:53:34.886Z,42.78
2022-12-08T23:56:10.623Z,37.05
2022-12-08T23:58:38.044Z,40.97
